Time;durP1;ratioP1;P1;durP2;ratioP2;P2;SDS_P1;SDS_P2;PMS_P1;PMS_P2;Temp;Humidity;BMP_temperature;BMP_pressure;BME280_temperature;BME280_humidity;BME280_pressure;Samples;Min_cycle;Max_cycle;Signal;HPM_P1;HPM_P2
2023/11/15 00:01:27;;;;;;;13.20;12.40;;;10.00;99.90;;;;;;4870293;29;20202;-81
2023/11/15 00:03:54;;;;;;;12.50;11.80;;;10.10;99.90;;;;;;4880949;29;20216;-80
2023/11/15 00:06:20;;;;;;;12.30;11.60;;;10.00;99.90;;;;;;4871813;29;20210;-80
2023/11/15 00:08:47;;;;;;;13.03;12.23;;;10.00;99.90;;;;;;4868568;29;20250;-80
2023/11/15 00:11:18;;;;;;;12.97;12.17;;;10.00;99.90;;;;;;4867781;29;20245;-80
2023/11/15 00:13:48;;;;;;;12.93;12.23;;;10.00;99.90;;;;;;4867527;29;20209;-80
2023/11/15 00:16:14;;;;;;;13.07;12.27;;;9.90;99.90;;;;;;4875537;29;20679;-80
2023/11/15 00:18:41;;;;;;;12.83;12.03;;;9.90;99.90;;;;;;4867866;29;20195;-80
2023/11/15 00:21:08;;;;;;;12.80;12.10;;;9.80;99.90;;;;;;4877454;29;20226;-81
2023/11/15 00:23:36;;;;;;;12.87;12.17;;;9.80;99.90;;;;;;4872836;29;20224;-80
2023/11/15 00:26:04;;;;;;;13.40;12.60;;;9.70;99.90;;;;;;4876347;29;20221;-80
2023/11/15 00:28:32;;;;;;;12.97;12.27;;;9.70;99.90;;;;;;4867994;29;20220;-80
2023/11/15 00:30:59;;;;;;;13.90;13.00;;;9.70;99.90;;;;;;4868344;29;20618;-80
2023/11/15 00:33:26;;;;;;;13.00;12.30;;;9.70;99.90;;;;;;4881984;29;20197;-80
2023/11/15 00:35:53;;;;;;;13.50;12.80;;;9.70;99.90;;;;;;4867034;29;20194;-80
2023/11/15 00:38:21;;;;;;;13.00;12.30;;;9.70;99.90;;;;;;4881045;29;20249;-81
2023/11/15 00:40:48;;;;;;;13.13;12.33;;;9.70;99.90;;;;;;4877726;29;20209;-80
2023/11/15 00:43:17;;;;;;;13.33;12.43;;;9.70;99.90;;;;;;4872408;29;20210;-80
2023/11/15 00:45:45;;;;;;;13.23;12.43;;;9.70;99.90;;;;;;4866667;29;20586;-81
2023/11/15 00:48:14;;;;;;;13.30;12.60;;;9.70;99.90;;;;;;4865915;29;20235;-80
2023/11/15 00:50:41;;;;;;;13.30;12.60;;;9.70;99.90;;;;;;4873192;29;20731;-80
2023/11/15 00:53:08;;;;;;;13.37;12.57;;;9.70;99.90;;;;;;4866947;29;20209;-80
2023/11/15 00:55:35;;;;;;;13.20;12.50;;;9.70;99.90;;;;;;4870999;29;20296;-80
2023/11/15 00:58:03;;;;;;;13.50;12.70;;;9.70;99.90;;;;;;4866886;29;20225;-80
2023/11/15 01:00:39;;;;;;;13.70;12.80;;;9.70;99.90;;;;;;4872421;29;20200;-80
2023/11/15 01:03:07;;;;;;;12.70;12.00;;;9.70;99.90;;;;;;4870611;29;20264;-80
2023/11/15 01:05:34;;;;;;;13.03;12.33;;;9.70;99.90;;;;;;4877411;29;20202;-80
2023/11/15 01:08:04;;;;;;;13.70;12.90;;;9.70;99.90;;;;;;4865261;29;20233;-80
2023/11/15 01:10:31;;;;;;;13.30;12.60;;;9.70;99.90;;;;;;4874251;29;20221;-80
2023/11/15 01:12:58;;;;;;;13.27;12.57;;;9.70;99.90;;;;;;4874571;29;20201;-80
2023/11/15 01:15:25;;;;;;;13.63;12.83;;;9.70;99.90;;;;;;4879426;29;20205;-80
2023/11/15 01:17:53;;;;;;;13.40;12.70;;;9.70;99.90;;;;;;4863794;29;20222;-80
2023/11/15 01:20:21;;;;;;;13.60;12.90;;;9.70;99.90;;;;;;4872086;29;20197;-80
2023/11/15 01:22:48;;;;;;;13.50;12.80;;;9.70;99.90;;;;;;4871361;29;20641;-80
2023/11/15 01:25:15;;;;;;;13.40;12.70;;;9.70;99.90;;;;;;4875801;29;20238;-80
2023/11/15 01:27:42;;;;;;;14.00;13.20;;;9.70;99.90;;;;;;4872463;29;20229;-79
2023/11/15 01:30:10;;;;;;;14.40;13.30;;;9.60;99.90;;;;;;4872050;29;20665;-80
2023/11/15 01:32:36;;;;;;;13.57;12.87;;;9.60;99.90;;;;;;4884485;29;20231;-80
2023/11/15 01:35:05;;;;;;;13.40;12.60;;;9.60;99.90;;;;;;4868784;29;20205;-80
2023/11/15 01:37:33;;;;;;;13.23;12.50;;;9.60;99.90;;;;;;4869062;29;20218;-80
2023/11/15 01:40:01;;;;;;;13.67;12.90;;;9.60;99.90;;;;;;4867598;29;20664;-80
2023/11/15 01:42:28;;;;;;;13.27;12.57;;;9.70;99.90;;;;;;4869340;29;20198;-80
2023/11/15 01:44:55;;;;;;;12.90;12.10;;;9.70;99.90;;;;;;4877145;29;20220;-80
2023/11/15 01:47:24;;;;;;;12.93;12.17;;;9.60;99.90;;;;;;4868811;29;20218;-80
2023/11/15 01:49:51;;;;;;;12.80;12.10;;;9.60;99.90;;;;;;4874088;29;20281;-80
2023/11/15 01:52:18;;;;;;;12.43;11.80;;;9.50;99.90;;;;;;4875807;29;20234;-80
2023/11/15 01:54:50;;;;;;;12.40;11.57;;;9.50;99.90;;;;;;4882381;29;20205;-80
2023/11/15 01:57:18;;;;;;;12.37;11.57;;;9.40;99.90;;;;;;4871747;29;20234;-80
2023/11/15 01:59:45;;;;;;;12.60;11.90;;;9.40;99.90;;;;;;4875030;29;20213;-80
2023/11/15 02:02:12;;;;;;;12.30;11.60;;;9.40;99.90;;;;;;4870777;29;20221;-80
2023/11/15 02:04:39;;;;;;;12.63;11.60;;;9.40;99.90;;;;;;4873861;29;20209;-80
2023/11/15 02:07:07;;;;;;;12.50;11.80;;;9.40;99.90;;;;;;4870636;29;20241;-80
2023/11/15 02:09:35;;;;;;;12.20;11.50;;;9.40;99.90;;;;;;4881100;29;20227;-80
2023/11/15 02:12:04;;;;;;;13.20;12.40;;;9.30;99.90;;;;;;4870237;29;20723;-80
2023/11/15 02:14:31;;;;;;;12.20;11.50;;;9.30;99.90;;;;;;4871262;29;20205;-79
2023/11/15 02:16:58;;;;;;;12.20;11.30;;;9.20;99.90;;;;;;4876746;29;20647;-80
2023/11/15 02:19:27;;;;;;;12.43;11.73;;;9.10;99.90;;;;;;4873618;29;20249;-80
2023/11/15 02:21:54;;;;;;;12.40;11.70;;;9.10;99.90;;;;;;4880114;29;20671;-80
2023/11/15 02:24:22;;;;;;;12.40;11.70;;;9.00;99.90;;;;;;4864672;29;20202;-80
2023/11/15 02:26:49;;;;;;;12.20;11.50;;;9.00;99.90;;;;;;4872041;29;20226;-80
2023/11/15 02:29:15;;;;;;;12.53;11.77;;;9.00;99.90;;;;;;4872841;29;20217;-80
2023/11/15 02:31:42;;;;;;;12.07;11.27;;;8.90;99.90;;;;;;4870621;29;20300;-80
2023/11/15 02:34:09;;;;;;;12.10;11.30;;;9.00;99.90;;;;;;4868703;29;20205;-79
2023/11/15 02:36:36;;;;;;;12.33;11.30;;;9.00;99.90;;;;;;4864775;29;20729;-80
2023/11/15 02:39:03;;;;;;;11.87;11.27;;;9.00;99.90;;;;;;4865052;29;20262;-80
2023/11/15 02:41:31;;;;;;;11.90;11.30;;;9.00;99.90;;;;;;4872039;29;20481;-79
2023/11/15 02:43:58;;;;;;;12.00;11.30;;;9.00;99.90;;;;;;4882409;29;20206;-80
2023/11/15 02:46:25;;;;;;;12.30;11.50;;;9.10;99.90;;;;;;4882481;29;20671;-80
2023/11/15 02:48:53;;;;;;;11.97;11.27;;;9.00;99.90;;;;;;4871911;29;20202;-80
2023/11/15 02:51:20;;;;;;;12.30;11.60;;;9.00;99.90;;;;;;4872384;29;20228;-80
2023/11/15 02:53:47;;;;;;;12.30;11.60;;;9.00;99.90;;;;;;4872156;29;20218;-80
2023/11/15 02:56:13;;;;;;;12.20;11.50;;;8.90;99.90;;;;;;4865074;29;20213;-79
2023/11/15 02:58:41;;;;;;;12.33;11.73;;;8.90;99.90;;;;;;4864496;29;20247;-80
2023/11/15 03:01:10;;;;;;;12.40;11.70;;;8.80;99.90;;;;;;4876013;29;20245;-80
2023/11/15 03:03:38;;;;;;;12.63;11.83;;;8.80;99.90;;;;;;4867848;29;20663;-80
2023/11/15 03:06:06;;;;;;;12.60;11.80;;;8.80;99.90;;;;;;4863623;29;20675;-80
2023/11/15 03:08:33;;;;;;;12.40;11.70;;;8.70;99.90;;;;;;4866740;29;20236;-80
2023/11/15 03:11:00;;;;;;;12.67;11.83;;;8.70;99.90;;;;;;4871515;29;20622;-80
2023/11/15 03:13:27;;;;;;;13.10;12.37;;;8.70;99.90;;;;;;4865777;29;20654;-80
2023/11/15 03:15:56;;;;;;;13.20;12.40;;;8.60;99.90;;;;;;4863806;29;20206;-80
2023/11/15 03:18:23;;;;;;;12.30;11.60;;;8.60;99.90;;;;;;4863562;29;20233;-80
2023/11/15 03:20:52;;;;;;;12.57;11.77;;;8.60;99.90;;;;;;4878416;29;20637;-79
2023/11/15 03:23:20;;;;;;;13.20;12.50;;;8.60;99.90;;;;;;4864030;29;20214;-80
2023/11/15 03:25:47;;;;;;;12.83;12.13;;;8.50;99.90;;;;;;4865596;29;20743;-80
2023/11/15 03:28:14;;;;;;;13.10;12.40;;;8.50;99.90;;;;;;4872425;29;20718;-80
2023/11/15 03:30:40;;;;;;;13.27;12.47;;;8.50;99.90;;;;;;4870459;29;20661;-80
2023/11/15 03:33:09;;;;;;;14.10;13.20;;;8.40;99.90;;;;;;4866892;29;20209;-80
2023/11/15 03:35:35;;;;;;;13.33;12.60;;;8.40;99.90;;;;;;4872934;29;20217;-79
2023/11/15 03:38:03;;;;;;;13.70;13.00;;;8.40;99.90;;;;;;4868013;29;20249;-79
2023/11/15 03:40:29;;;;;;;13.33;12.63;;;8.40;99.90;;;;;;4867240;29;20695;-80
2023/11/15 03:42:56;;;;;;;14.10;13.00;;;8.40;99.90;;;;;;4862449;29;20300;-80
2023/11/15 03:45:23;;;;;;;13.97;13.10;;;8.40;99.90;;;;;;4868661;29;20202;-80
2023/11/15 03:47:50;;;;;;;14.03;13.07;;;8.40;99.90;;;;;;4879785;29;20229;-80
2023/11/15 03:50:19;;;;;;;14.37;13.57;;;8.50;99.90;;;;;;4868256;29;20201;-79
2023/11/15 03:52:46;;;;;;;14.13;13.23;;;8.50;99.90;;;;;;4866928;29;20206;-80
2023/11/15 03:55:13;;;;;;;13.33;12.63;;;8.50;99.90;;;;;;4861345;29;20230;-81
2023/11/15 03:57:40;;;;;;;13.57;12.67;;;8.50;99.90;;;;;;4860047;29;20742;-80
2023/11/15 04:00:10;;;;;;;13.50;12.80;;;8.50;99.90;;;;;;4865208;29;20710;-80
2023/11/15 04:02:39;;;;;;;14.77;13.87;;;8.40;99.90;;;;;;4878222;29;20214;-80
2023/11/15 04:05:09;;;;;;;14.40;13.60;;;8.40;99.90;;;;;;4871884;29;20213;-80
2023/11/15 04:07:37;;;;;;;15.53;14.43;;;8.40;99.90;;;;;;4870696;29;20280;-80
2023/11/15 04:10:04;;;;;;;13.37;12.57;;;8.40;99.90;;;;;;4870536;29;20205;-80
2023/11/15 04:12:31;;;;;;;12.60;11.83;;;8.30;99.90;;;;;;4875896;29;20225;-81
2023/11/15 04:14:59;;;;;;;13.43;12.63;;;8.30;99.90;;;;;;4874643;29;20305;-80
2023/11/15 04:17:26;;;;;;;13.60;12.60;;;8.30;99.90;;;;;;4873237;29;20587;-80
2023/11/15 04:19:52;;;;;;;14.10;13.10;;;8.30;99.90;;;;;;4879108;29;20266;-81
2023/11/15 04:22:19;;;;;;;14.10;13.20;;;8.30;99.90;;;;;;4873000;29;20202;-81
2023/11/15 04:24:47;;;;;;;13.17;12.37;;;8.30;99.90;;;;;;4874460;29;20223;-80
2023/11/15 04:27:14;;;;;;;13.70;12.80;;;8.30;99.90;;;;;;4870542;29;20772;-80
2023/11/15 04:29:41;;;;;;;13.50;12.60;;;8.30;99.90;;;;;;4875865;29;20633;-80
2023/11/15 04:32:08;;;;;;;13.53;12.70;;;8.20;99.90;;;;;;4872191;29;20228;-81
2023/11/15 04:34:35;;;;;;;13.23;12.53;;;8.30;99.90;;;;;;4874019;29;20488;-81
2023/11/15 04:37:01;;;;;;;14.03;13.03;;;8.30;99.90;;;;;;4871446;29;20225;-78
2023/11/15 04:39:31;;;;;;;13.67;12.87;;;8.30;99.90;;;;;;4873757;29;20579;-80
2023/11/15 04:41:59;;;;;;;14.07;13.10;;;8.40;99.90;;;;;;4872521;29;20254;-80
2023/11/15 04:44:27;;;;;;;13.70;12.70;;;8.50;99.90;;;;;;4869583;29;20201;-81
2023/11/15 04:46:54;;;;;;;13.30;12.40;;;8.50;99.90;;;;;;4860627;29;20821;-81
2023/11/15 04:53:27;;;;;;;;;;;;;;;;;;;;;
2023/11/15 05:00:43;;;;;;;14.80;13.90;;;8.70;99.90;;;;;;4866719;29;20232;-82
2023/11/15 05:07:18;;;;;;;15.20;14.30;;;8.80;99.90;;;;;;4808378;29;20237;-83
2023/11/15 05:13:49;;;;;;;14.77;13.90;;;8.90;99.90;;;;;;4868284;29;20246;-83
2023/11/15 05:17:21;;;;;;;14.30;13.50;;;8.90;99.90;;;;;;4862131;29;20213;-83
2023/11/15 05:41:57;;;;;;;13.50;12.70;;;8.90;99.90;;;;;;4879082;29;20713;-78
2023/11/15 05:44:23;;;;;;;13.50;12.80;;;8.90;99.90;;;;;;4879748;29;20205;-77
2023/11/15 05:46:50;;;;;;;13.80;12.80;;;8.90;99.90;;;;;;4879758;29;20661;-78
2023/11/15 05:49:17;;;;;;;14.27;13.30;;;8.90;99.90;;;;;;4868663;29;20216;-77
2023/11/15 05:51:44;;;;;;;14.10;13.30;;;8.90;99.90;;;;;;4860218;29;20257;-77
2023/11/15 05:54:11;;;;;;;14.23;13.30;;;8.80;99.90;;;;;;4855945;29;20201;-78
2023/11/15 05:56:37;;;;;;;13.90;13.20;;;8.70;99.90;;;;;;4862374;29;20217;-78
2023/11/15 05:59:05;;;;;;;13.73;12.93;;;8.70;99.90;;;;;;4852392;29;20225;-77
2023/11/15 06:01:37;;;;;;;13.50;12.70;;;8.70;99.90;;;;;;4872421;29;20291;-77
2023/11/15 06:04:05;;;;;;;13.67;12.97;;;8.70;99.90;;;;;;4864836;29;20206;-77
2023/11/15 06:06:32;;;;;;;13.90;13.10;;;8.60;99.90;;;;;;4862811;29;20480;-77
2023/11/15 06:08:59;;;;;;;13.80;13.00;;;8.60;99.90;;;;;;4871829;29;20207;-78
2023/11/15 06:11:25;;;;;;;13.80;12.90;;;8.60;99.90;;;;;;4863734;29;20308;-77
2023/11/15 06:13:52;;;;;;;13.50;12.70;;;8.70;99.90;;;;;;4856653;29;20233;-78
2023/11/15 06:16:21;;;;;;;13.30;12.60;;;8.70;99.90;;;;;;4852694;29;20613;-78
2023/11/15 06:18:47;;;;;;;14.33;13.50;;;8.70;99.90;;;;;;4850183;29;20206;-77
2023/11/15 06:21:14;;;;;;;14.70;13.80;;;8.70;99.90;;;;;;4861831;29;20199;-78
2023/11/15 06:23:42;;;;;;;13.90;13.10;;;8.70;99.90;;;;;;4853485;29;20679;-78
2023/11/15 06:26:11;;;;;;;14.30;13.50;;;8.70;99.90;;;;;;4862590;29;20301;-78
2023/11/15 06:28:38;;;;;;;14.00;13.20;;;8.70;99.90;;;;;;4858482;29;20230;-77
2023/11/15 06:31:06;;;;;;;14.03;13.13;;;8.80;99.90;;;;;;4871150;29;20293;-81
2023/11/15 06:37:03;;;;;;;14.07;13.27;;;8.80;99.90;;;;;;4821088;29;20617;-82
2023/11/15 06:39:33;;;;;;;14.50;13.60;;;8.80;99.90;;;;;;4813383;29;20207;-82
2023/11/15 06:42:00;;;;;;;14.43;13.50;;;8.80;99.90;;;;;;4843087;29;20207;-78
2023/11/15 06:44:27;;;;;;;14.60;13.60;;;8.90;99.90;;;;;;4875410;29;20202;-78
2023/11/15 06:46:53;;;;;;;13.63;12.93;;;8.90;99.90;;;;;;4842629;29;20222;-78
2023/11/15 06:49:22;;;;;;;13.37;12.67;;;8.90;99.90;;;;;;4867255;29;20607;-79
2023/11/15 06:51:50;;;;;;;13.50;12.60;;;8.90;99.90;;;;;;4854688;29;20300;-78
2023/11/15 06:54:16;;;;;;;12.90;12.20;;;8.90;99.90;;;;;;4844015;29;20292;-78
2023/11/15 06:56:46;;;;;;;13.60;12.70;;;8.90;99.90;;;;;;4855171;29;20225;-79
2023/11/15 06:59:13;;;;;;;12.83;12.13;;;8.90;99.90;;;;;;4865819;29;20225;-78
2023/11/15 07:01:40;;;;;;;13.10;12.20;;;8.90;99.90;;;;;;4875478;29;20200;-78
2023/11/15 07:04:07;;;;;;;12.53;11.83;;;8.90;99.90;;;;;;4861829;29;20202;-78
2023/11/15 07:06:35;;;;;;;12.20;11.50;;;8.90;99.90;;;;;;4874642;29;20228;-78
2023/11/15 07:09:02;;;;;;;12.70;11.87;;;9.00;99.90;;;;;;4876560;29;20202;-78
2023/11/15 07:11:29;;;;;;;12.43;11.73;;;9.00;99.90;;;;;;4863410;29;20256;-78
2023/11/15 07:13:56;;;;;;;12.40;11.60;;;9.00;99.90;;;;;;4860279;29;20257;-78
2023/11/15 07:16:22;;;;;;;12.17;11.43;;;9.00;99.90;;;;;;4851914;29;20674;-78
2023/11/15 07:18:49;;;;;;;12.30;11.53;;;9.10;99.90;;;;;;4853386;29;20558;-78
2023/11/15 07:21:16;;;;;;;12.07;11.37;;;9.10;99.90;;;;;;4853226;29;20209;-78
2023/11/15 07:23:44;;;;;;;12.20;11.40;;;9.10;99.90;;;;;;4870304;29;20221;-78
2023/11/15 07:26:11;;;;;;;11.80;11.00;;;9.10;99.90;;;;;;4850804;29;20217;-78
2023/11/15 07:28:41;;;;;;;11.67;10.97;;;9.10;99.90;;;;;;4848456;29;20198;-78
2023/11/15 07:31:09;;;;;;;12.10;11.30;;;9.20;99.90;;;;;;4877288;29;20210;-78
2023/11/15 07:33:36;;;;;;;12.10;11.40;;;9.20;99.90;;;;;;4868879;29;20197;-78
2023/11/15 07:36:04;;;;;;;12.70;11.97;;;9.20;99.90;;;;;;4877401;29;20205;-78
2023/11/15 07:38:30;;;;;;;12.10;11.40;;;9.20;99.90;;;;;;4857288;29;20226;-79
2023/11/15 07:40:59;;;;;;;12.53;11.77;;;9.30;99.90;;;;;;4860290;29;20683;-78
2023/11/15 07:43:25;;;;;;;12.57;11.67;;;9.30;99.90;;;;;;4852762;29;20221;-78
2023/11/15 07:45:53;;;;;;;12.10;11.40;;;9.40;99.90;;;;;;4849000;29;20585;-78
2023/11/15 07:48:20;;;;;;;12.20;11.50;;;9.50;99.90;;;;;;4848976;29;20254;-79
2023/11/15 07:50:51;;;;;;;13.30;12.50;;;9.50;99.90;;;;;;4866139;29;20202;-79
2023/11/15 07:53:18;;;;;;;12.70;12.00;;;9.60;99.90;;;;;;4847626;29;20299;-78
2023/11/15 07:55:45;;;;;;;12.67;11.97;;;9.50;99.90;;;;;;4849209;29;20238;-78
2023/11/15 07:58:15;;;;;;;12.30;11.60;;;9.60;99.90;;;;;;4864185;29;20226;-78
2023/11/15 08:00:46;;;;;;;12.50;11.80;;;9.70;99.90;;;;;;4868725;29;20231;-80
2023/11/15 08:03:19;;;;;;;12.00;11.20;;;9.80;99.90;;;;;;4851149;29;20270;-80
2023/11/15 08:06:01;;;;;;;12.40;11.70;;;9.90;99.90;;;;;;4845425;29;20296;-82
2023/11/15 08:08:28;;;;;;;12.00;11.30;;;10.00;99.90;;;;;;4869280;29;20198;-78
2023/11/15 08:10:54;;;;;;;12.23;11.43;;;10.10;99.90;;;;;;4846370;29;20206;-81
2023/11/15 08:13:38;;;;;;;12.33;11.53;;;10.30;99.90;;;;;;4866324;29;20227;-85
2023/11/15 08:16:32;;;;;;;12.17;11.40;;;10.40;99.90;;;;;;4874391;29;20205;-85
2023/11/15 08:19:27;;;;;;;11.97;11.27;;;10.40;99.90;;;;;;4862076;29;20209;-85
2023/11/15 08:21:59;;;;;;;12.00;11.30;;;10.40;99.90;;;;;;4849225;29;20198;-83
2023/11/15 08:24:55;;;;;;;12.23;11.43;;;10.40;99.90;;;;;;4883757;29;20210;-86
2023/11/15 08:27:22;;;;;;;12.13;11.33;;;10.40;99.90;;;;;;4846606;29;20282;-79
2023/11/15 08:29:51;;;;;;;12.07;11.23;;;10.40;99.90;;;;;;4862355;29;20207;-82
2023/11/15 08:32:19;;;;;;;12.00;11.20;;;10.50;99.90;;;;;;4863983;29;20604;-82
2023/11/15 08:34:46;;;;;;;12.23;11.40;;;10.50;99.90;;;;;;4844942;29;20202;-82
2023/11/15 08:40:28;;;;;;;12.57;11.67;;;10.70;99.90;;;;;;4859783;29;20239;-82
2023/11/15 08:43:21;;;;;;;12.60;11.60;;;10.80;99.90;;;;;;4854606;29;20205;-83
2023/11/15 08:45:49;;;;;;;12.20;11.50;;;10.80;99.90;;;;;;4875473;29;20212;-82
2023/11/15 08:48:37;;;;;;;11.77;10.97;;;10.80;99.90;;;;;;4860332;29;20220;-82
2023/11/15 08:51:05;;;;;;;12.00;11.30;;;10.70;99.90;;;;;;4844753;29;20294;-78
2023/11/15 08:53:32;;;;;;;11.87;11.17;;;10.70;99.90;;;;;;4856501;29;20233;-82
2023/11/15 08:56:12;;;;;;;11.73;11.03;;;10.60;99.90;;;;;;4846789;29;20214;-82
2023/11/15 08:58:58;;;;;;;11.90;11.13;;;10.60;99.90;;;;;;4843222;29;20212;-82
2023/11/15 09:01:29;;;;;;;12.10;11.30;;;10.60;99.90;;;;;;4871665;29;20692;-85
2023/11/15 09:03:56;;;;;;;12.07;11.30;;;10.50;99.90;;;;;;4850235;29;20201;-77
2023/11/15 09:06:24;;;;;;;12.20;11.40;;;10.50;99.90;;;;;;4842123;29;20289;-77
2023/11/15 09:08:51;;;;;;;11.97;11.27;;;10.40;99.90;;;;;;4849399;29;20266;-77
2023/11/15 09:11:28;;;;;;;12.50;11.70;;;10.40;99.90;;;;;;4840211;29;20212;-83
2023/11/15 09:14:00;;;;;;;12.43;11.73;;;10.30;99.90;;;;;;4861163;29;20226;-83
2023/11/15 09:16:38;;;;;;;12.80;11.90;;;10.30;99.90;;;;;;4844542;29;20227;-84
2023/11/15 09:19:20;;;;;;;;;;;;;;;;;;;;;
2023/11/15 09:22:12;;;;;;;12.70;11.80;;;10.30;99.90;;;;;;4851530;29;20203;-82
2023/11/15 09:24:39;;;;;;;12.27;11.57;;;10.30;99.90;;;;;;4849601;29;20203;-83
2023/11/15 09:27:12;;;;;;;12.50;11.80;;;10.30;99.90;;;;;;4874896;29;20327;-83
2023/11/15 09:29:44;;;;;;;12.50;11.80;;;10.40;99.90;;;;;;4844884;29;20307;-83
2023/11/15 09:32:19;;;;;;;12.27;11.57;;;10.40;99.90;;;;;;4847502;29;20224;-83
2023/11/15 09:34:48;;;;;;;11.83;11.03;;;10.50;99.90;;;;;;4855424;29;20231;-83
2023/11/15 09:37:18;;;;;;;12.30;11.40;;;10.50;99.90;;;;;;4839809;29;20227;-83
2023/11/15 09:40:02;;;;;;;;;;;;;;;;;;;;;
2023/11/15 09:42:31;;;;;;;12.57;11.80;;;10.60;99.90;;;;;;4844890;29;20211;-84
2023/11/15 09:44:59;;;;;;;12.70;11.50;;;10.60;99.90;;;;;;4874917;29;20231;-84
2023/11/15 09:47:51;;;;;;;12.00;11.00;;;10.70;99.90;;;;;;4875584;29;20650;-84
2023/11/15 09:50:26;;;;;;;11.67;10.83;;;10.70;99.90;;;;;;4843310;29;20240;-84
2023/11/15 09:52:58;;;;;;;11.57;10.87;;;10.80;99.90;;;;;;4847408;29;20328;-84
2023/11/15 09:55:44;;;;;;;11.40;10.77;;;10.90;99.90;;;;;;4881084;29;20217;-84
2023/11/15 10:01:16;;;;;;;11.70;10.90;;;10.90;99.90;;;;;;4846271;29;20677;-82
2023/11/15 10:03:47;;;;;;;12.33;11.50;;;11.00;99.90;;;;;;4861101;29;20213;-83
2023/11/15 10:06:17;;;;;;;12.00;11.20;;;10.90;99.90;;;;;;4848053;29;20210;-84
2023/11/15 10:08:55;;;;;;;12.43;11.43;;;10.90;99.90;;;;;;4848022;29;20299;-83
2023/11/15 10:11:24;;;;;;;11.80;11.10;;;10.80;99.90;;;;;;4848977;29;20211;-83
2023/11/15 10:14:01;;;;;;;11.30;10.70;;;10.80;99.90;;;;;;4848064;29;20227;-83
2023/11/15 10:16:36;;;;;;;12.03;11.10;;;10.80;99.90;;;;;;4847701;29;20223;-83
2023/11/15 10:19:27;;;;;;;5.28;4.97;;;11.00;99.90;;;;;;4850069;29;20539;-84
2023/11/15 10:22:02;;;;;;;12.10;11.30;;;11.30;99.90;;;;;;4858118;29;20209;-84
2023/11/15 10:24:32;;;;;;;11.50;10.90;;;11.50;99.90;;;;;;4878702;29;20213;-84
2023/11/15 10:27:05;;;;;;;11.60;10.90;;;11.70;99.90;;;;;;4863137;29;20308;-84
2023/11/15 10:29:33;;;;;;;11.33;10.57;;;11.80;99.90;;;;;;4853175;29;20876;-83
2023/11/15 10:32:23;;;;;;;5.83;4.17;;;11.80;99.90;;;;;;4848700;29;20284;-86
2023/11/15 10:34:53;;;;;;;3.80;3.40;;;11.70;99.90;;;;;;4859055;29;20292;-79
2023/11/15 10:37:20;;;;;;;7.30;6.47;;;11.60;99.90;;;;;;4844136;29;20289;-78
2023/11/15 10:39:47;;;;;;;11.90;11.20;;;11.50;99.90;;;;;;4873495;29;20201;-78
2023/11/15 10:42:18;;;;;;;12.23;11.30;;;11.50;99.90;;;;;;4865933;29;20213;-79
2023/11/15 10:44:47;;;;;;;12.07;11.20;;;11.50;99.90;;;;;;4878991;29;20762;-78
2023/11/15 10:47:19;;;;;;;12.03;11.23;;;11.40;99.90;;;;;;4882381;29;20222;-78
2023/11/15 10:49:57;;;;;;;12.20;11.50;;;11.40;99.90;;;;;;4854531;29;20643;-79
2023/11/15 10:52:25;;;;;;;11.97;11.17;;;11.30;99.90;;;;;;4845175;29;20556;-79
2023/11/15 10:54:52;;;;;;;12.20;11.40;;;11.30;99.90;;;;;;4859479;29;20302;-78
2023/11/15 10:57:23;;;;;;;11.70;11.10;;;11.30;99.90;;;;;;4848812;29;20237;-78
2023/11/15 10:59:52;;;;;;;12.27;11.47;;;11.30;99.90;;;;;;4839321;29;20218;-77
2023/11/15 11:02:24;;;;;;;11.50;10.90;;;11.20;99.90;;;;;;4840917;29;20241;-78
2023/11/15 11:04:53;;;;;;;12.87;12.03;;;11.30;99.90;;;;;;4875995;29;20573;-77
2023/11/15 11:07:29;;;;;;;12.30;11.50;;;11.40;99.90;;;;;;4843308;29;20238;-77
2023/11/15 11:10:01;;;;;;;11.37;10.57;;;11.70;99.90;;;;;;4872726;29;20193;-78
2023/11/15 11:12:31;;;;;;;12.03;11.13;;;11.90;99.90;;;;;;4842769;29;20241;-77
2023/11/15 11:15:26;;;;;;;11.93;11.13;;;12.00;99.90;;;;;;4837336;29;20213;-78
2023/11/15 11:18:03;;;;;;;11.80;11.00;;;11.90;99.90;;;;;;4873103;29;20232;-78
2023/11/15 11:20:35;;;;;;;11.90;11.10;;;11.70;99.90;;;;;;4840100;29;20212;-78
2023/11/15 11:23:19;;;;;;;11.03;10.43;;;11.60;99.90;;;;;;4849275;29;20588;-78
2023/11/15 11:25:47;;;;;;;12.37;11.67;;;11.70;99.90;;;;;;4841258;29;20212;-78
2023/11/15 11:28:14;;;;;;;12.50;11.80;;;11.80;99.90;;;;;;4860162;29;20516;-78
2023/11/15 11:30:41;;;;;;;11.80;11.10;;;11.90;99.90;;;;;;4843167;29;20214;-78
2023/11/15 11:33:13;;;;;;;12.43;11.73;;;12.00;99.90;;;;;;4842725;29;20224;-77
2023/11/15 11:35:45;;;;;;;11.20;10.50;;;11.90;99.90;;;;;;4843297;29;20268;-79
2023/11/15 11:38:41;;;;;;;11.10;10.30;;;11.80;99.90;;;;;;4845830;29;20241;-78
2023/11/15 11:41:08;;;;;;;11.00;10.33;;;11.80;99.90;;;;;;4855288;29;20311;-80
2023/11/15 11:43:35;;;;;;;10.73;10.10;;;11.80;99.90;;;;;;4849403;29;20198;-79
2023/11/15 11:46:13;;;;;;;10.50;9.90;;;12.00;99.90;;;;;;4847921;29;20202;-78
2023/11/15 11:48:40;;;;;;;10.80;10.00;;;12.00;99.90;;;;;;4840190;29;20698;-78
2023/11/15 11:51:07;;;;;;;11.33;10.50;;;12.10;99.90;;;;;;4834197;29;20217;-78
2023/11/15 11:53:40;;;;;;;11.10;10.20;;;12.10;99.90;;;;;;4838394;29;20229;-78
2023/11/15 11:56:08;;;;;;;11.23;10.43;;;12.30;99.90;;;;;;4852109;29;20243;-78
2023/11/15 11:58:36;;;;;;;10.30;9.70;;;12.30;99.90;;;;;;4861006;29;20202;-78
2023/11/15 12:01:05;;;;;;;10.13;9.53;;;12.30;99.90;;;;;;4855472;29;20344;-78
2023/11/15 12:03:32;;;;;;;10.90;10.30;;;12.20;99.90;;;;;;4861394;29;20258;-78
2023/11/15 12:06:07;;;;;;;11.20;10.50;;;12.20;99.90;;;;;;4843687;29;20214;-78
2023/11/15 12:08:37;;;;;;;11.73;11.03;;;12.10;99.90;;;;;;4868811;29;20216;-78
2023/11/15 12:11:06;;;;;;;11.23;10.63;;;12.00;99.90;;;;;;4851240;29;20209;-77
2023/11/15 12:13:49;;;;;;;11.60;10.97;;;11.90;99.90;;;;;;4852425;29;20229;-78
2023/11/15 12:16:39;;;;;;;11.50;10.82;;;12.00;99.90;;;;;;4850831;29;20464;-78
2023/11/15 12:19:09;;;;;;;11.33;10.63;;;12.10;99.90;;;;;;4857131;29;20221;-77
2023/11/15 12:21:38;;;;;;;11.80;11.10;;;12.20;99.90;;;;;;4857663;29;20198;-80
2023/11/15 12:24:09;;;;;;;10.97;10.27;;;12.20;99.90;;;;;;4841699;29;20332;-80
2023/11/15 12:26:46;;;;;;;12.23;11.57;;;12.20;99.90;;;;;;4844190;29;20217;-79
2023/11/15 12:29:21;;;;;;;11.90;11.20;;;12.10;99.90;;;;;;4841667;29;20437;-80
2023/11/15 12:31:50;;;;;;;10.90;10.20;;;12.00;99.90;;;;;;4843556;29;20655;-80
2023/11/15 12:34:38;;;;;;;11.20;10.50;;;11.90;99.90;;;;;;4856781;29;20460;-81
2023/11/15 12:37:06;;;;;;;10.80;10.20;;;11.80;99.90;;;;;;4854390;29;20260;-78
2023/11/15 12:39:37;;;;;;;10.90;10.10;;;11.80;99.90;;;;;;4865906;29;20216;-80
2023/11/15 12:42:06;;;;;;;10.80;10.10;;;11.80;99.90;;;;;;4854127;29;20268;-78
2023/11/15 12:44:42;;;;;;;11.20;10.50;;;11.90;99.90;;;;;;4859061;29;20281;-79
2023/11/15 12:47:09;;;;;;;3.55;3.35;;;11.90;99.90;;;;;;4852834;29;20446;-79
2023/11/15 12:49:37;;;;;;;11.33;10.53;;;12.00;99.90;;;;;;4844236;29;20202;-78
2023/11/15 12:52:05;;;;;;;10.60;10.00;;;12.10;99.90;;;;;;4845920;29;20706;-79
2023/11/15 12:54:32;;;;;;;12.30;11.40;;;12.10;99.90;;;;;;4838509;29;20265;-78
2023/11/15 12:57:12;;;;;;;11.68;10.98;;;12.10;99.90;;;;;;4861494;29;20543;-79
2023/11/15 12:59:41;;;;;;;10.90;10.30;;;12.10;99.90;;;;;;4839037;29;20204;-78
2023/11/15 13:02:11;;;;;;;11.07;10.47;;;12.10;99.90;;;;;;4860196;29;20676;-78
2023/11/15 13:04:46;;;;;;;10.87;10.17;;;12.10;99.90;;;;;;4856896;29;20197;-78
2023/11/15 13:07:14;;;;;;;11.00;10.40;;;12.00;99.90;;;;;;4860481;29;20252;-78
2023/11/15 13:09:40;;;;;;;9.97;9.37;;;12.00;99.90;;;;;;4841134;29;20256;-79
2023/11/15 13:12:22;;;;;;;10.80;10.07;;;11.90;99.90;;;;;;4849635;29;20202;-84
2023/11/15 13:14:49;;;;;;;11.43;10.67;;;11.90;99.90;;;;;;4865057;29;20320;-80
2023/11/15 13:17:15;;;;;;;10.97;10.37;;;11.80;99.90;;;;;;4860936;29;20223;-78
2023/11/15 13:19:42;;;;;;;10.90;10.30;;;11.80;99.90;;;;;;4867836;29;20236;-78
2023/11/15 13:22:09;;;;;;;10.73;10.10;;;11.80;99.90;;;;;;4844784;29;20215;-79
2023/11/15 13:24:37;;;;;;;11.07;10.20;;;11.80;99.90;;;;;;4868531;29;20217;-79
2023/11/15 13:27:04;;;;;;;10.77;10.13;;;11.80;99.90;;;;;;4856225;29;20227;-78
2023/11/15 13:29:31;;;;;;;11.27;10.40;;;11.80;99.90;;;;;;4847247;29;20216;-82
2023/11/15 13:32:20;;;;;;;11.10;10.50;;;11.80;99.90;;;;;;4857549;29;20254;-83
2023/11/15 13:38:41;;;;;;;11.20;10.40;;;11.90;99.90;;;;;;5071580;23;20250;-83
2023/11/15 13:41:21;;;;;;;;;;;;;;;;;;;;;
2023/11/15 13:44:19;;;;;;;11.43;10.73;;;11.70;99.90;;;;;;4894574;29;20656;-82
2023/11/15 13:50:10;;;;;;;11.47;10.60;;;11.60;99.90;;;;;;4894684;29;20215;-82